Time;durP1;ratioP1;P1;durP2;ratioP2;P2;SDS_P1;SDS_P2;PMS_P1;PMS_P2;Temp;Humidity;BMP_temperature;BMP_pressure;BME280_temperature;BME280_humidity;BME280_pressure;Samples;Min_cycle;Max_cycle;Signal;HPM_P1;HPM_P2
2023/07/12 00:01:26;;;;;;;6.80;4.70;;;;;;;17.58;71.28;97786.59;106479;1283;22583;-80
2023/07/12 00:03:53;;;;;;;8.00;4.70;;;;;;;17.80;69.94;97782.60;106601;1284;25428;-79
2023/07/12 00:06:29;;;;;;;6.60;4.50;;;;;;;17.80;69.17;97772.27;106544;1265;23356;-79
2023/07/12 00:08:56;;;;;;;6.80;4.60;;;;;;;17.90;69.98;97767.46;106648;1283;24728;-79
2023/07/12 00:11:23;;;;;;;5.40;3.90;;;;;;;18.00;69.16;97767.73;106776;1283;22597;-79
2023/07/12 00:13:52;;;;;;;8.40;5.10;;;;;;;18.09;69.57;97763.97;106659;1283;22572;-79
2023/07/12 00:16:19;;;;;;;7.20;4.10;;;;;;;18.27;69.40;97760.08;106660;1283;24245;-79
2023/07/12 00:18:46;;;;;;;5.20;4.10;;;;;;;18.46;69.01;97754.59;106607;1284;22639;-79
2023/07/12 00:21:13;;;;;;;6.00;3.90;;;;;;;18.60;68.59;97752.65;106675;1283;26550;-79
2023/07/12 00:23:40;;;;;;;5.40;4.10;;;;;;;18.72;68.25;97753.70;106614;1279;22604;-79
2023/07/12 00:26:37;;;;;;;6.20;3.90;;;;;;;18.81;67.76;97753.77;106789;1283;22640;-78
2023/07/12 00:29:06;;;;;;;6.10;4.10;;;;;;;18.88;67.58;97748.55;106597;1283;22620;-79
2023/07/12 00:31:34;;;;;;;5.20;3.70;;;;;;;19.02;67.43;97747.90;106544;1283;22577;-79
2023/07/12 00:34:03;;;;;;;6.70;4.10;;;;;;;19.13;67.03;97744.47;106616;1283;23283;-78
2023/07/12 00:36:32;;;;;;;5.80;4.50;;;;;;;19.11;66.58;97745.45;106652;1283;24073;-78
2023/07/12 00:39:00;;;;;;;7.90;4.20;;;;;;;19.19;66.49;97743.41;106273;1283;22544;-78
2023/07/12 00:41:52;;;;;;;6.40;4.60;;;;;;;19.24;66.25;97736.66;106110;1284;22605;-78
2023/07/12 00:44:28;;;;;;;6.90;3.90;;;;;;;19.29;66.09;97733.16;106169;1261;22689;-78
2023/07/12 00:46:57;;;;;;;6.10;4.40;;;;;;;19.40;65.43;97726.51;106237;1283;22524;-78
2023/07/12 00:49:25;;;;;;;5.80;3.90;;;;;;;19.46;65.10;97723.42;106211;1283;23353;-78
2023/07/12 00:52:00;;;;;;;5.20;4.00;;;;;;;19.49;64.94;97723.80;106206;1283;24261;-79
2023/07/12 00:54:46;;;;;;;5.80;4.20;;;;;;;19.40;65.11;97720.04;106647;1284;25242;-77
2023/07/12 00:57:13;;;;;;;6.60;4.70;;;;;;;19.21;65.10;97720.69;106208;1283;22540;-77
2023/07/12 00:59:40;;;;;;;6.80;4.40;;;;;;;19.04;65.11;97723.45;106192;1283;22643;-78
2023/07/12 01:02:08;;;;;;;7.40;4.30;;;;;;;18.93;65.10;97723.30;106225;1283;25473;-77
2023/07/12 01:04:39;;;;;;;6.10;4.40;;;;;;;18.88;65.34;97726.23;106327;1283;22687;-78
2023/07/12 01:07:06;;;;;;;6.10;4.30;;;;;;;18.89;65.24;97721.89;106606;1283;22654;-78
2023/07/12 01:09:33;;;;;;;7.70;4.70;;;;;;;18.82;64.99;97726.66;106105;1283;22672;-78
2023/07/12 01:12:00;;;;;;;5.80;3.90;;;;;;;18.73;64.94;97725.45;106158;1283;25500;-78
2023/07/12 01:14:27;;;;;;;6.10;4.10;;;;;;;18.72;65.74;97720.71;106215;1274;22601;-78
2023/07/12 01:17:01;;;;;;;6.40;4.20;;;;;;;18.83;65.88;97717.95;106467;1284;22540;-78
2023/07/12 01:19:29;;;;;;;5.70;4.00;;;;;;;18.76;64.70;97715.84;106443;1273;22597;-78
2023/07/12 01:21:56;;;;;;;6.00;4.10;;;;;;;18.47;64.43;97713.61;106578;1283;25490;-78
2023/07/12 01:24:25;;;;;;;6.30;4.50;;;;;;;18.24;64.59;97711.28;106644;1283;22559;-78
2023/07/12 01:26:57;;;;;;;5.50;4.30;;;;;;;18.00;64.52;97715.16;106604;1283;22557;-78
2023/07/12 01:29:29;;;;;;;6.40;4.50;;;;;;;17.81;65.25;97715.06;106230;1283;25293;-79
2023/07/12 01:31:56;;;;;;;6.00;4.10;;;;;;;17.73;65.90;97713.88;106616;1283;22655;-79
2023/07/12 01:34:24;;;;;;;6.40;4.60;;;;;;;17.62;65.34;97711.05;106783;1283;22627;-79
2023/07/12 01:36:50;;;;;;;6.50;3.80;;;;;;;17.53;65.61;97710.02;106223;1283;22618;-78
2023/07/12 01:39:17;;;;;;;6.60;4.10;;;;;;;17.46;65.57;97706.73;106310;1283;22596;-78
2023/07/12 01:41:44;;;;;;;5.80;4.40;;;;;;;17.35;65.79;97703.15;106283;1283;25367;-79
2023/07/12 01:44:13;;;;;;;5.40;3.90;;;;;;;17.28;66.49;97701.49;106284;1283;25352;-78
2023/07/12 01:46:39;;;;;;;6.10;3.90;;;;;;;17.37;67.58;97701.56;106235;1283;22749;-78
2023/07/12 01:49:06;;;;;;;7.10;4.40;;;;;;;17.48;66.99;97697.38;106359;1283;22678;-80
2023/07/12 01:51:34;;;;;;;6.40;4.10;;;;;;;17.55;66.98;97693.89;107565;1283;22551;-78
2023/07/12 01:54:00;;;;;;;6.60;4.30;;;;;;;17.61;66.50;97690.53;107840;1283;22829;-79
2023/07/12 01:56:27;;;;;;;6.00;4.50;;;;;;;17.58;66.56;97682.84;108248;1283;22585;-78
2023/07/12 01:58:54;;;;;;;7.20;4.50;;;;;;;17.53;66.29;97678.89;108455;1283;22530;-80
2023/07/12 02:01:21;;;;;;;7.70;4.30;;;;;;;17.49;66.38;97666.79;108431;1268;22569;-79
2023/07/12 02:03:48;;;;;;;5.80;4.20;;;;;;;17.43;66.57;97660.88;108667;1284;22741;-79
2023/07/12 02:06:16;;;;;;;9.10;4.60;;;;;;;17.48;66.58;97657.36;108830;1283;22570;-79
2023/07/12 02:08:42;;;;;;;6.80;4.10;;;;;;;17.49;66.54;97660.98;107627;1283;25064;-78
2023/07/12 02:11:13;;;;;;;5.70;4.00;;;;;;;17.49;66.70;97655.29;106301;1260;22544;-79
2023/07/12 02:13:40;;;;;;;7.80;4.00;;;;;;;17.52;66.77;97655.59;106240;1283;22608;-78
2023/07/12 02:16:07;;;;;;;7.90;4.20;;;;;;;17.55;66.95;97651.31;106360;1283;22552;-78
2023/07/12 02:18:35;;;;;;;5.20;4.20;;;;;;;17.64;67.11;97644.38;106186;1283;23929;-78
2023/07/12 02:21:02;;;;;;;6.00;4.20;;;;;;;17.73;66.85;97641.65;106185;1283;22839;-78
2023/07/12 02:23:31;;;;;;;5.80;4.50;;;;;;;17.71;66.69;97639.56;106605;1282;25493;-78
2023/07/12 02:25:58;;;;;;;8.30;5.00;;;;;;;17.72;66.76;97640.36;106655;1282;25330;-78
2023/07/12 02:28:25;;;;;;;5.30;4.50;;;;;;;17.70;66.77;97641.96;106225;1282;25805;-79
2023/07/12 02:30:52;;;;;;;5.50;4.10;;;;;;;17.71;66.61;97638.24;106626;1282;22543;-78
2023/07/12 02:33:18;;;;;;;6.30;4.40;;;;;;;17.77;66.88;97638.31;106305;1282;22712;-79
2023/07/12 02:35:45;;;;;;;6.10;4.30;;;;;;;17.82;66.69;97636.73;106591;1282;22804;-78
2023/07/12 02:38:11;;;;;;;6.00;4.30;;;;;;;17.86;66.35;97638.41;106305;1282;22684;-78
2023/07/12 02:40:38;;;;;;;7.70;3.90;;;;;;;17.89;66.53;97631.30;106271;1282;24272;-78
2023/07/12 02:43:04;;;;;;;7.00;3.80;;;;;;;17.97;66.45;97635.85;106266;1282;22547;-79
2023/07/12 02:45:31;;;;;;;5.00;3.80;;;;;;;18.03;66.25;97633.35;106269;1282;22962;-78
2023/07/12 02:47:58;;;;;;;10.40;4.60;;;;;;;18.06;66.16;97629.20;106268;1282;23046;-78
2023/07/12 02:50:24;;;;;;;6.30;4.40;;;;;;;18.07;66.01;97628.07;106238;1282;22604;-79
2023/07/12 02:52:54;;;;;;;5.20;3.50;;;;;;;18.06;66.13;97628.05;106337;1282;22555;-79
2023/07/12 02:55:21;;;;;;;5.80;4.60;;;;;;;18.18;66.10;97615.62;106294;1282;26564;-79
2023/07/12 02:57:47;;;;;;;5.70;4.30;;;;;;;18.25;65.71;97612.73;106239;1282;24079;-79
2023/07/12 03:00:14;;;;;;;7.20;4.30;;;;;;;18.21;65.44;97605.79;106285;1282;22569;-79
2023/07/12 03:02:40;;;;;;;5.70;3.70;;;;;;;18.21;65.42;97598.80;106260;1282;25486;-79
2023/07/12 03:05:07;;;;;;;6.20;4.60;;;;;;;18.25;65.59;97594.88;106293;1282;24266;-79
2023/07/12 03:07:35;;;;;;;5.00;4.30;;;;;;;18.31;65.44;97594.55;106321;1282;22716;-79
2023/07/12 03:10:02;;;;;;;4.70;3.70;;;;;;;18.38;65.19;97596.65;106281;1282;22554;-79
2023/07/12 03:12:30;;;;;;;6.40;4.60;;;;;;;18.43;65.04;97597.54;106273;1282;22540;-78
2023/07/12 03:14:57;;;;;;;6.90;4.50;;;;;;;18.47;64.95;97596.67;106307;1282;23157;-79
2023/07/12 03:17:24;;;;;;;11.90;4.00;;;;;;;18.54;64.93;97602.83;106327;1282;24069;-79
2023/07/12 03:19:50;;;;;;;5.80;4.30;;;;;;;18.65;64.65;97608.43;106306;1282;22664;-78
2023/07/12 03:22:17;;;;;;;7.40;4.40;;;;;;;18.74;64.54;97604.41;106292;1282;22545;-78
2023/07/12 03:24:43;;;;;;;6.40;4.30;;;;;;;18.73;64.17;97610.87;106290;1282;22548;-77
2023/07/12 03:27:10;;;;;;;5.80;4.40;;;;;;;18.73;64.19;97613.15;106298;1282;23037;-77
2023/07/12 03:29:37;;;;;;;5.60;4.30;;;;;;;18.77;64.07;97613.78;106285;1282;22662;-77
2023/07/12 03:32:05;;;;;;;5.50;3.80;;;;;;;18.86;64.15;97611.07;106293;1282;22541;-77
2023/07/12 03:34:32;;;;;;;6.20;4.60;;;;;;;18.91;64.07;97607.41;106308;1282;22539;-77
2023/07/12 03:37:00;;;;;;;6.40;4.20;;;;;;;18.95;63.76;97602.29;106336;1282;22566;-78
2023/07/12 03:39:27;;;;;;;5.50;4.30;;;;;;;18.99;63.49;97599.63;106295;1282;22546;-77
2023/07/12 03:41:53;;;;;;;6.20;4.10;;;;;;;19.04;63.58;97597.53;106697;1282;22831;-79
2023/07/12 03:44:20;;;;;;;8.20;4.30;;;;;;;19.06;63.43;97598.20;106278;1282;22566;-78
2023/07/12 03:46:47;;;;;;;7.40;4.50;;;;;;;19.13;63.84;97595.98;106293;1282;22562;-78
2023/07/12 03:49:13;;;;;;;6.60;4.10;;;;;;;19.26;63.50;97597.30;106638;1282;22707;-78
2023/07/12 03:51:40;;;;;;;7.50;4.60;;;;;;;19.32;63.23;97595.84;106314;1282;24205;-78
2023/07/12 03:54:07;;;;;;;5.10;3.70;;;;;;;19.37;63.25;97594.62;106673;1282;25311;-78
2023/07/12 03:56:34;;;;;;;7.70;4.90;;;;;;;19.44;63.07;97596.84;106697;1282;25356;-78
2023/07/12 03:59:00;;;;;;;8.80;5.30;;;;;;;19.47;63.06;97588.46;106303;1282;24271;-78
2023/07/12 04:01:28;;;;;;;7.20;4.50;;;;;;;19.52;62.75;97590.36;106319;1282;22667;-78
2023/07/12 04:03:55;;;;;;;6.10;4.50;;;;;;;19.51;62.76;97583.00;106542;1282;24392;-78
2023/07/12 04:06:22;;;;;;;5.80;4.90;;;;;;;19.61;62.95;97580.81;106394;1282;22703;-78
2023/07/12 04:08:48;;;;;;;8.30;4.50;;;;;;;19.79;62.78;97577.83;106407;1259;22578;-78
2023/07/12 04:11:24;;;;;;;5.10;3.70;;;;;;;19.90;62.53;97577.09;106385;1282;25419;-78
2023/07/12 04:13:51;;;;;;;6.90;4.10;;;;;;;20.03;62.37;97570.63;106384;1282;24268;-77
2023/07/12 04:16:18;;;;;;;4.90;4.10;;;;;;;20.14;62.29;97568.66;106462;1282;22735;-79
2023/07/12 04:18:45;;;;;;;6.20;4.70;;;;;;;20.26;61.88;97563.11;106777;1282;23564;-79
2023/07/12 04:21:12;;;;;;;5.30;4.10;;;;;;;20.37;61.55;97566.08;106653;1282;25579;-79
2023/07/12 04:23:38;;;;;;;5.90;4.00;;;;;;;20.48;61.56;97566.61;106743;1282;22895;-79
2023/07/12 04:26:05;;;;;;;10.70;4.50;;;;;;;20.58;61.57;97563.32;106534;1282;22695;-79
2023/07/12 04:28:42;;;;;;;7.20;5.00;;;;;;;20.64;61.28;97564.88;106661;1282;22621;-79
2023/07/12 04:31:10;;;;;;;5.90;4.30;;;;;;;20.71;61.21;97559.63;106696;1277;23391;-78
2023/07/12 04:33:38;;;;;;;8.30;4.40;;;;;;;20.77;61.10;97565.49;106200;1282;22512;-77
2023/07/12 04:36:10;;;;;;;8.40;4.60;;;;;;;20.84;60.99;97564.41;106226;1272;22949;-78
2023/07/12 04:38:38;;;;;;;7.00;4.40;;;;;;;20.93;60.68;97564.81;106835;1282;24220;-77
2023/07/12 04:41:05;;;;;;;6.00;5.00;;;;;;;20.87;60.38;97560.45;106710;1280;22574;-78
2023/07/12 04:43:32;;;;;;;7.60;5.00;;;;;;;20.79;60.20;97557.53;106797;1279;23907;-77
2023/07/12 04:45:59;;;;;;;11.00;5.10;;;;;;;20.75;60.29;97551.64;107029;1282;23964;-77
2023/07/12 04:48:25;;;;;;;10.90;5.50;;;;;;;20.75;60.30;97551.94;106352;1282;22571;-78
2023/07/12 04:50:54;;;;;;;9.00;5.40;;;;;;;20.74;60.06;97559.59;106460;1279;22544;-78
2023/07/12 04:53:23;;;;;;;7.50;5.40;;;;;;;20.63;59.76;97575.35;106391;1282;22562;-80
2023/07/12 04:55:52;;;;;;;6.60;4.80;;;;;;;20.55;59.81;97575.17;106566;1282;24236;-78
2023/07/12 04:58:19;;;;;;;7.00;5.40;;;;;;;20.54;60.03;97564.83;106715;1282;22673;-78
2023/07/12 05:00:47;;;;;;;6.80;4.70;;;;;;;20.56;60.01;97559.38;106439;1282;24087;-81
2023/07/12 05:03:17;;;;;;;8.40;5.40;;;;;;;20.62;60.02;97552.43;106727;1282;22632;-78
2023/07/12 05:05:44;;;;;;;7.40;4.80;;;;;;;20.71;59.94;97545.72;106376;1282;22563;-80
2023/07/12 05:08:11;;;;;;;6.90;5.00;;;;;;;20.82;59.98;97541.55;106329;1282;26669;-80
2023/07/12 05:10:38;;;;;;;11.10;5.30;;;;;;;20.93;59.65;97538.13;106666;1282;22603;-80
2023/07/12 05:13:05;;;;;;;6.70;4.70;;;;;;;21.00;59.58;97532.17;106653;1282;23155;-78
2023/07/12 05:15:32;;;;;;;6.50;5.00;;;;;;;21.05;59.58;97521.51;106192;1282;25473;-79
2023/07/12 05:17:58;;;;;;;8.00;5.50;;;;;;;21.08;59.53;97513.63;106141;1282;24208;-79
2023/07/12 05:20:26;;;;;;;6.10;4.80;;;;;;;21.11;59.43;97520.77;106819;1282;24099;-78
2023/07/12 05:22:53;;;;;;;7.20;5.00;;;;;;;21.12;59.30;97518.35;106384;1282;22547;-77
2023/07/12 05:25:20;;;;;;;10.90;5.50;;;;;;;21.17;59.32;97526.77;106350;1282;25431;-76
2023/07/12 05:27:47;;;;;;;7.70;4.90;;;;;;;21.21;59.18;97529.95;106291;1282;25790;-76
2023/07/12 05:30:14;;;;;;;10.00;5.70;;;;;;;21.24;59.23;97525.05;106355;1282;22589;-77
2023/07/12 05:32:40;;;;;;;9.50;6.30;;;;;;;21.25;59.19;97523.17;106310;1282;22576;-76
2023/07/12 05:35:08;;;;;;;9.40;7.70;;;;;;;21.28;59.17;97530.63;106346;1282;22558;-77
2023/07/12 05:37:34;;;;;;;9.30;6.30;;;;;;;21.31;59.07;97532.15;106365;1282;22689;-76
2023/07/12 05:40:01;;;;;;;12.70;6.90;;;;;;;21.30;59.28;97532.46;106389;1282;22538;-76
2023/07/12 05:42:28;;;;;;;8.30;6.10;;;;;;;21.33;59.17;97526.37;106422;1282;22544;-76
2023/07/12 05:44:54;;;;;;;8.10;5.60;;;;;;;21.35;59.19;97528.11;106401;1282;23832;-76
2023/07/12 05:47:21;;;;;;;8.10;6.30;;;;;;;21.35;59.21;97532.49;106375;1282;25494;-76
2023/07/12 05:49:48;;;;;;;7.60;5.60;;;;;;;21.36;59.23;97535.70;106382;1282;25463;-76
2023/07/12 05:52:14;;;;;;;11.50;5.50;;;;;;;21.34;59.13;97532.64;106372;1282;23135;-77
2023/07/12 05:54:41;;;;;;;9.50;5.50;;;;;;;21.33;59.29;97534.60;106384;1282;24349;-77
2023/07/12 05:57:08;;;;;;;7.80;5.90;;;;;;;21.36;59.28;97544.74;106346;1282;24212;-76
2023/07/12 05:59:34;;;;;;;6.70;5.20;;;;;;;21.40;59.39;97546.20;106350;1282;22621;-76
2023/07/12 06:02:01;;;;;;;8.30;6.00;;;;;;;21.43;59.47;97540.27;106370;1282;25605;-76
2023/07/12 06:04:28;;;;;;;8.10;5.70;;;;;;;21.45;59.31;97537.07;106346;1282;22665;-76
2023/07/12 06:06:54;;;;;;;10.40;6.20;;;;;;;21.50;59.44;97533.67;106339;1282;22572;-76
2023/07/12 06:09:21;;;;;;;7.60;5.80;;;;;;;21.57;59.18;97544.69;106301;1282;22545;-76
2023/07/12 06:11:47;;;;;;;7.60;5.80;;;;;;;21.61;59.27;97552.15;106362;1282;22620;-76
2023/07/12 06:14:14;;;;;;;7.90;5.40;;;;;;;21.68;59.24;97552.77;106364;1282;23339;-76
2023/07/12 06:16:43;;;;;;;8.90;6.00;;;;;;;21.79;59.17;97550.34;106495;1282;25365;-77
2023/07/12 06:19:10;;;;;;;8.10;5.70;;;;;;;21.92;59.27;97541.56;106535;1279;22955;-77
2023/07/12 06:21:37;;;;;;;8.80;5.80;;;;;;;22.08;59.47;97537.02;106470;1281;25232;-77
2023/07/12 06:24:08;;;;;;;6.70;5.40;;;;;;;22.24;59.19;97529.55;106482;1282;22592;-76
2023/07/12 06:26:34;;;;;;;8.10;5.60;;;;;;;22.35;59.31;97529.29;106372;1282;22622;-76
2023/07/12 06:29:02;;;;;;;9.40;5.50;;;;;;;22.46;59.11;97529.33;106400;1282;25440;-76
2023/07/12 06:31:29;;;;;;;12.20;6.00;;;;;;;22.54;58.89;97526.70;106406;1282;25241;-76
2023/07/12 06:33:59;;;;;;;8.00;5.10;;;;;;;22.62;58.98;97519.65;106337;1282;22717;-76
2023/07/12 06:36:26;;;;;;;9.10;5.50;;;;;;;22.74;58.95;97511.13;106475;1282;24740;-76
2023/07/12 06:38:53;;;;;;;9.10;5.60;;;;;;;22.79;58.76;97502.44;106364;1282;22536;-76
2023/07/12 06:41:19;;;;;;;8.20;5.40;;;;;;;22.84;58.79;97501.98;106350;1282;22626;-76
2023/07/12 06:43:46;;;;;;;10.70;6.30;;;;;;;22.93;58.67;97508.29;106361;1282;22784;-76
2023/07/12 06:46:12;;;;;;;8.20;5.70;;;;;;;22.99;58.16;97513.73;106328;1282;22548;-76
2023/07/12 06:48:40;;;;;;;9.00;6.10;;;;;;;23.02;58.11;97507.29;106370;1282;24864;-76
2023/07/12 06:51:07;;;;;;;7.80;5.90;;;;;;;23.06;58.19;97501.02;106360;1282;22537;-76
2023/07/12 06:53:34;;;;;;;9.90;5.70;;;;;;;23.15;58.18;97502.29;106428;1282;25236;-76
2023/07/12 06:56:01;;;;;;;10.20;5.90;;;;;;;23.26;58.26;97500.65;106347;1282;25546;-76
2023/07/12 06:58:27;;;;;;;12.00;6.30;;;;;;;23.33;58.08;97497.50;106352;1282;22553;-76
2023/07/12 07:00:54;;;;;;;12.60;6.60;;;;;;;23.39;58.06;97498.77;106327;1282;22612;-76
2023/07/12 07:03:21;;;;;;;11.10;7.00;;;;;;;23.48;57.76;97491.77;106352;1282;22673;-77
2023/07/12 07:05:48;;;;;;;9.30;6.40;;;;;;;23.60;58.00;97490.42;106190;1282;22708;-78
2023/07/12 07:08:17;;;;;;;12.40;6.70;;;;;;;23.73;57.50;97492.48;106362;1282;23431;-78
2023/07/12 07:10:49;;;;;;;11.40;6.50;;;;;;;23.77;57.36;97488.92;106362;1282;22566;-78
2023/07/12 07:13:15;;;;;;;8.70;6.50;;;;;;;23.91;57.56;97476.23;106449;1282;22543;-78
2023/07/12 07:15:46;;;;;;;13.60;7.00;;;;;;;24.10;57.63;97473.35;106328;1272;25545;-78
2023/07/12 07:18:12;;;;;;;9.40;6.30;;;;;;;24.27;57.40;97470.69;106324;1282;22761;-78
2023/07/12 07:20:40;;;;;;;9.90;6.00;;;;;;;24.41;57.20;97471.59;106313;1282;22544;-78
2023/07/12 07:23:08;;;;;;;12.90;6.50;;;;;;;24.47;57.02;97467.23;106382;1282;23376;-78
2023/07/12 07:25:35;;;;;;;14.50;6.50;;;;;;;24.52;56.83;97463.59;106326;1282;24271;-78
2023/07/12 07:28:01;;;;;;;11.40;6.30;;;;;;;24.58;57.06;97453.64;106383;1282;22569;-78
2023/07/12 07:30:29;;;;;;;12.90;6.70;;;;;;;24.72;56.61;97452.38;106415;1282;25392;-79
2023/07/12 07:32:56;;;;;;;10.50;6.00;;;;;;;24.82;56.89;97451.45;106307;1282;25287;-81
2023/07/12 07:35:23;;;;;;;11.60;6.20;;;;;;;25.05;57.04;97453.27;106809;1282;22661;-81
2023/07/12 07:37:51;;;;;;;13.00;6.80;;;;;;;25.27;56.84;97446.02;106746;1272;24221;-81
2023/07/12 07:40:18;;;;;;;13.10;6.00;;;;;;;25.42;56.78;97438.87;106811;1282;22603;-81
2023/07/12 07:42:45;;;;;;;11.00;6.70;;;;;;;25.49;56.71;97430.52;106787;1282;25431;-81
2023/07/12 07:45:11;;;;;;;12.60;6.70;;;;;;;25.54;56.23;97432.05;106727;1282;24259;-81
2023/07/12 07:47:38;;;;;;;10.90;7.10;;;;;;;25.66;56.39;97438.16;106763;1282;22596;-81
2023/07/12 07:50:06;;;;;;;11.60;7.30;;;;;;;25.76;55.95;97437.83;106809;1282;23732;-83
2023/07/12 07:52:33;;;;;;;9.60;6.70;;;;;;;25.77;55.76;97437.57;106948;1282;23851;-81
2023/07/12 07:55:00;;;;;;;10.00;6.50;;;;;;;25.82;56.04;97441.80;106755;1282;22549;-80
2023/07/12 07:57:28;;;;;;;10.60;6.50;;;;;;;25.88;55.44;97436.30;106788;1282;22551;-82
2023/07/12 07:59:56;;;;;;;10.80;6.60;;;;;;;25.93;55.61;97435.22;106791;1282;24254;-82
2023/07/12 08:02:22;;;;;;;11.00;6.30;;;;;;;26.03;55.45;97442.45;106912;1282;23344;-81
2023/07/12 08:04:49;;;;;;;8.50;6.70;;;;;;;26.12;55.56;97443.44;106782;1282;23312;-82
2023/07/12 08:07:16;;;;;;;14.40;6.90;;;;;;;26.18;55.23;97448.25;106865;1282;25414;-81
2023/07/12 08:09:43;;;;;;;11.10;7.10;;;;;;;26.16;55.27;97444.88;106780;1282;22658;-81
2023/07/12 08:12:10;;;;;;;11.20;6.20;;;;;;;26.18;55.38;97446.83;106696;1282;25391;-81
2023/07/12 08:14:37;;;;;;;12.60;7.20;;;;;;;26.18;55.37;97445.10;106622;1282;25440;-81
2023/07/12 08:17:04;;;;;;;9.60;6.80;;;;;;;26.20;55.46;97439.95;106524;1282;22659;-81
2023/07/12 08:19:30;;;;;;;10.00;7.00;;;;;;;26.30;55.22;97437.92;106560;1282;23130;-81
2023/07/12 08:21:57;;;;;;;9.90;7.60;;;;;;;26.39;55.25;97433.55;106736;1282;25436;-78
2023/07/12 08:24:23;;;;;;;10.60;7.10;;;;;;;26.61;55.21;97433.59;106848;1282;22542;-79
2023/07/12 08:26:50;;;;;;;10.80;6.10;;;;;;;26.82;54.74;97433.42;106788;1282;24180;-78
2023/07/12 08:29:33;;;;;;;13.00;7.10;;;;;;;26.95;54.47;97425.97;106773;1282;23381;-78
2023/07/12 08:32:00;;;;;;;10.70;6.70;;;;;;;27.06;53.88;97426.83;106359;1282;24320;-79
2023/07/12 08:34:27;;;;;;;9.50;6.40;;;;;;;27.08;54.12;97426.55;106720;1282;26701;-79
2023/07/12 08:36:53;;;;;;;10.80;6.80;;;;;;;27.13;52.96;97425.03;106832;1282;22649;-80
2023/07/12 08:39:20;;;;;;;9.60;6.60;;;;;;;27.18;53.16;97423.88;106783;1282;23846;-77
2023/07/12 08:41:47;;;;;;;10.50;6.50;;;;;;;27.28;53.17;97426.48;106791;1282;24268;-79
2023/07/12 08:44:14;;;;;;;8.50;6.50;;;;;;;27.32;52.96;97433.92;106627;1282;22696;-79
2023/07/12 08:46:50;;;;;;;11.20;7.00;;;;;;;27.32;52.57;97442.08;106682;1282;22588;-78
2023/07/12 08:49:18;;;;;;;14.90;7.20;;;;;;;27.26;52.56;97444.69;106752;1282;25256;-79
2023/07/12 08:51:46;;;;;;;14.30;6.20;;;;;;;27.20;52.57;97445.90;106752;1282;23360;-79
2023/07/12 08:54:25;;;;;;;11.40;6.60;;;;;;;27.14;52.73;97436.89;106733;1282;22552;-79
2023/07/12 08:57:11;;;;;;;14.40;7.10;;;;;;;27.09;52.69;97441.79;106825;1282;22533;-79
2023/07/12 08:59:37;;;;;;;12.70;7.10;;;;;;;27.00;52.72;97442.47;106803;1282;23181;-80
2023/07/12 09:02:17;;;;;;;14.20;7.30;;;;;;;26.89;52.86;97448.96;106799;1282;24236;-78
2023/07/12 09:04:44;;;;;;;9.90;7.40;;;;;;;26.79;52.97;97450.86;106363;1282;22543;-79
2023/07/12 09:07:10;;;;;;;14.10;7.20;;;;;;;26.75;53.07;97458.98;106789;1282;25422;-78
2023/07/12 09:09:39;;;;;;;10.50;6.70;;;;;;;26.67;53.02;97470.13;106753;1282;23122;-78
2023/07/12 09:12:20;;;;;;;11.50;6.90;;;;;;;26.56;52.99;97477.23;106328;1282;25252;-79
2023/07/12 09:14:52;;;;;;;7.80;6.00;;;;;;;26.51;53.14;97474.06;106760;1282;22559;-79
2023/07/12 09:17:24;;;;;;;10.90;6.60;;;;;;;26.49;52.87;97470.45;106844;1282;22587;-79
2023/07/12 09:19:51;;;;;;;12.30;7.10;;;;;;;26.51;52.88;97466.48;106749;1282;24359;-79
2023/07/12 09:22:19;;;;;;;10.00;6.20;;;;;;;26.54;52.55;97462.81;106649;1271;23944;-78
2023/07/12 09:24:51;;;;;;;9.50;6.70;;;;;;;26.55;52.54;97455.53;106559;1282;24274;-79
2023/07/12 09:27:27;;;;;;;7.90;6.50;;;;;;;26.59;52.67;97454.77;106423;1282;25224;-78
2023/07/12 09:29:59;;;;;;;9.00;6.50;;;;;;;26.63;52.67;97454.88;106778;1282;22554;-79
2023/07/12 09:32:35;;;;;;;10.50;6.80;;;;;;;26.63;52.75;97455.19;106836;1282;24237;-78
2023/07/12 09:35:21;;;;;;;10.40;6.50;;;;;;;26.61;52.65;97462.08;106443;1282;22752;-79
2023/07/12 09:37:56;;;;;;;12.60;7.00;;;;;;;26.55;52.83;97468.02;106235;1282;22676;-79
2023/07/12 09:40:23;;;;;;;14.10;7.20;;;;;;;26.49;52.86;97461.05;106812;1282;22558;-79
2023/07/12 09:42:57;;;;;;;12.50;6.90;;;;;;;26.44;53.13;97457.55;106782;1282;22548;-79
2023/07/12 09:45:30;;;;;;;13.40;7.70;;;;;;;26.41;53.52;97464.77;106746;1282;25308;-79
2023/07/12 09:48:09;;;;;;;14.50;7.40;;;;;;;26.41;53.91;97465.08;106720;1282;22664;-78
2023/07/12 09:51:08;;;;;;;11.80;7.70;;;;;;;26.40;54.89;97464.93;106763;1282;24226;-78
2023/07/12 09:53:50;;;;;;;15.70;8.50;;;;;;;26.37;55.31;97472.48;106826;1282;22532;-78
2023/07/12 09:56:42;;;;;;;20.00;9.00;;;;;;;26.37;55.86;97469.17;106765;1282;22555;-78
2023/07/12 09:59:47;;;;;;;10.30;8.10;;;;;;;26.38;56.10;97463.84;106834;1282;22534;-78
2023/07/12 10:02:51;;;;;;;22.40;8.30;;;;;;;26.46;56.08;97463.22;106456;1282;22665;-78
2023/07/12 10:05:19;;;;;;;;;;;;;;;26.51;55.63;97461.98;106376;1282;22517;-78
2023/07/12 10:08:03;;;;;;;11.40;7.20;;;;;;;26.57;55.33;97460.10;106812;1282;26602;-78
2023/07/12 10:10:48;;;;;;;11.20;7.30;;;;;;;26.60;54.74;97454.60;106854;1282;22537;-78
2023/07/12 10:13:36;;;;;;;8.90;7.70;;;;;;;26.63;54.76;97441.05;106780;1282;22618;-79
2023/07/12 10:16:09;;;;;;;11.00;7.10;;;;;;;26.70;54.01;97437.34;106715;1282;22596;-79
2023/07/12 10:18:38;;;;;;;13.80;7.30;;;;;;;26.81;53.89;97429.27;106609;1271;22676;-79
2023/07/12 10:21:07;;;;;;;11.00;6.60;;;;;;;27.00;53.32;97427.95;106695;1282;22573;-80
2023/07/12 10:23:49;;;;;;;11.30;7.10;;;;;;;27.21;53.16;97424.64;106727;1282;24006;-79
2023/07/12 10:26:16;;;;;;;10.90;6.80;;;;;;;27.49;52.04;97419.33;106718;1282;22670;-80
2023/07/12 10:28:53;;;;;;;13.90;6.80;;;;;;;27.68;51.51;97419.21;106765;1282;22550;-79
2023/07/12 10:31:36;;;;;;;9.50;6.40;;;;;;;27.83;50.27;97418.55;106654;1282;22557;-79
2023/07/12 10:34:24;;;;;;;9.30;6.90;;;;;;;27.82;49.41;97417.06;106862;1282;22624;-79
2023/07/12 10:36:57;;;;;;;10.90;6.40;;;;;;;27.91;49.47;97412.15;106764;1282;22551;-79
2023/07/12 10:39:26;;;;;;;8.50;5.70;;;;;;;28.03;48.69;97412.84;106926;1282;22647;-79
2023/07/12 10:42:31;;;;;;;7.20;6.10;;;;;;;28.03;48.81;97408.73;106967;1282;25233;-78
2023/07/12 10:45:00;;;;;;;9.60;6.20;;;;;;;28.10;48.47;97410.83;106776;1282;24193;-77
2023/07/12 10:47:33;;;;;;;9.40;5.90;;;;;;;28.12;48.60;97412.59;106881;1282;25277;-77
2023/07/12 10:50:04;;;;;;;9.70;6.30;;;;;;;28.25;48.37;97418.34;106828;1282;22701;-75
2023/07/12 10:53:17;;;;;;;9.60;6.30;;;;;;;28.36;48.05;97425.79;106458;1282;22552;-75
2023/07/12 10:56:04;;;;;;;9.50;5.60;;;;;;;28.42;46.83;97430.27;106460;1282;22821;-77
2023/07/12 10:58:50;;;;;;;9.40;6.40;;;;;;;28.36;46.70;97419.35;106387;1282;22522;-75
2023/07/12 11:01:40;;;;;;;12.10;6.10;;;;;;;28.53;46.97;97424.02;106399;1282;24380;-79
2023/07/12 11:04:12;;;;;;;9.90;5.70;;;;;;;28.71;46.96;97425.81;106707;1282;22677;-77
2023/07/12 11:06:56;;;;;;;9.30;5.90;;;;;;;28.91;46.90;97421.08;106388;1282;22547;-76
2023/07/12 11:09:24;;;;;;;9.30;6.20;;;;;;;28.93;46.03;97437.44;106419;1282;22557;-79
2023/07/12 11:12:06;;;;;;;10.50;6.00;;;;;;;28.69;45.83;97436.18;106958;1282;25233;-76
2023/07/12 11:14:38;;;;;;;9.90;6.30;;;;;;;28.45;46.42;97440.26;106319;1282;22719;-76
2023/07/12 11:17:11;;;;;;;8.90;5.60;;;;;;;28.32;46.82;97442.27;106365;1282;24392;-76
2023/07/12 11:19:44;;;;;;;14.90;6.30;;;;;;;28.07;46.68;97464.14;106433;1282;22546;-77
2023/07/12 11:22:20;;;;;;;16.10;5.60;;;;;;;27.80;46.80;97461.08;106358;1282;22542;-75
2023/07/12 11:24:58;;;;;;;9.20;5.50;;;;;;;27.65;46.54;97450.02;106396;1282;22534;-79
2023/07/12 11:27:29;;;;;;;14.80;5.20;;;;;;;27.44;46.41;97456.66;106743;1282;22594;-78
2023/07/12 11:30:12;;;;;;;8.90;4.70;;;;;;;27.34;46.16;97462.42;106880;1282;25338;-78
2023/07/12 11:32:40;;;;;;;6.40;4.40;;;;;;;27.31;46.36;97452.75;106785;1282;25278;-77
2023/07/12 11:35:22;;;;;;;8.90;4.90;;;;;;;27.33;46.36;97451.38;106844;1282;22606;-76